Terminal Aerodrome Forecast
Issued by NWS Goodland, KS

Home | Current Version | Previous Version | Text Only | Print | Product List | Glossary On
Versions: 1 2 3 4 5 6 7 8 9 10 11 12 13 14 15 16 17 18
000
FTUS43 KGLD 242300
TAFGLD
TAF
KGLD 242334Z 2500/2524 20011KT P6SM SCT150 BKN200
     FM250700 24008KT P6SM SCT200
     FM251100 29007KT P6SM SCT150
     FM251400 34013G24KT P6SM SCT150
     FM252100 01010KT P6SM BKN150=

USA.gov is the U.S. government's official web portal to all federal, state and local government web resources and services.